AAL2126 KSHV-KSAT
Flight info
| Callsign | AAL2126 |
|---|---|
| Flight time | 1h 33m |
| Altitude | 22000 |
| Route | LEMIG ELKAY |
| Aircraft | CRJ2/M-VGDW/C |
Departure
| Time | 2026-04-22 03:00 |
|---|---|
| Airport | Shreveport Regional Airport (KSHV) |
Arrival
| Time | 2026-04-22 04:33 |
|---|---|
| Airport | San Antonio International Airport (KSAT) |
| Time | Latitude | Longitude | Altitude | Speed | Heading |
|---|---|---|---|---|---|
| 2026-04-22 02:56 | 32.45361 | -93.83467 | 257 ft | 0 kts | 143° |
| 2026-04-22 02:59 | 32.45334 | -93.83443 | 256 ft | 14 kts | 143° |
| 2026-04-22 02:59 | 32.45016 | -93.83154 | 246 ft | 109 kts | 142° |
| 2026-04-22 03:00 | 32.44181 | -93.82417 | 427 ft | 177 kts | 143° |
| 2026-04-22 03:00 | 32.43203 | -93.81602 | 1473 ft | 179 kts | 146° |
| 2026-04-22 03:00 | 32.42096 | -93.80794 | 2290 ft | 204 kts | 150° |
| 2026-04-22 03:00 | 32.40823 | -93.80043 | 3470 ft | 206 kts | 157° |
| 2026-04-22 03:01 | 32.39501 | -93.79741 | 4644 ft | 201 kts | 183° |
| 2026-04-22 03:01 | 32.38111 | -93.80106 | 5350 ft | 215 kts | 205° |
| 2026-04-22 03:01 | 32.36858 | -93.80984 | 6394 ft | 213 kts | 219° |
| 2026-04-22 03:01 | 32.35744 | -93.82221 | 7010 ft | 233 kts | 234° |
| 2026-04-22 03:02 | 32.34891 | -93.83811 | 8177 ft | 224 kts | 245° |
| 2026-04-22 03:02 | 32.34138 | -93.85255 | 9499 ft | 208 kts | 240° |
| 2026-04-22 03:02 | 32.33309 | -93.86683 | 10208 ft | 221 kts | 237° |
| 2026-04-22 03:02 | 32.32323 | -93.88143 | 10891 ft | 234 kts | 231° |
| 2026-04-22 03:03 | 32.31148 | -93.89363 | 12022 ft | 225 kts | 221° |
| 2026-04-22 03:03 | 32.29921 | -93.90417 | 13051 ft | 217 kts | 222° |
| 2026-04-22 03:03 | 32.28680 | -93.91480 | 13603 ft | 231 kts | 221° |
| 2026-04-22 03:03 | 32.27349 | -93.92584 | 14288 ft | 237 kts | 220° |
| 2026-04-22 03:04 | 32.26001 | -93.93584 | 15246 ft | 229 kts | 219° |
| 2026-04-22 03:04 | 32.24704 | -93.94653 | 15926 ft | 231 kts | 224° |
| 2026-04-22 03:04 | 32.23461 | -93.95922 | 16365 ft | 243 kts | 229° |
| 2026-04-22 03:04 | 32.22227 | -93.97313 | 16983 ft | 247 kts | 231° |
| 2026-04-22 03:05 | 32.21003 | -93.98735 | 17636 ft | 250 kts | 231° |
| 2026-04-22 03:05 | 32.19783 | -94.00168 | 18294 ft | 252 kts | 231° |
| 2026-04-22 03:05 | 32.18544 | -94.01632 | 18963 ft | 253 kts | 232° |
| 2026-04-22 03:05 | 32.17308 | -94.03095 | 19624 ft | 253 kts | 232° |
| 2026-04-22 03:06 | 32.16095 | -94.04533 | 20265 ft | 252 kts | 232° |
| 2026-04-22 03:06 | 32.14861 | -94.05997 | 20906 ft | 251 kts | 233° |
| 2026-04-22 03:06 | 32.13638 | -94.07448 | 21528 ft | 250 kts | 233° |
| 2026-04-22 03:06 | 32.12401 | -94.08921 | 21879 ft | 261 kts | 233° |
| 2026-04-22 03:07 | 32.11087 | -94.10490 | 21916 ft | 282 kts | 232° |
| 2026-04-22 03:07 | 32.09650 | -94.12196 | 21918 ft | 300 kts | 232° |
| 2026-04-22 03:07 | 32.08154 | -94.13969 | 21917 ft | 317 kts | 231° |
| 2026-04-22 03:07 | 32.06561 | -94.15854 | 21914 ft | 333 kts | 231° |
| 2026-04-22 03:08 | 32.04878 | -94.17844 | 21912 ft | 347 kts | 231° |
| 2026-04-22 03:08 | 32.03165 | -94.19868 | 21909 ft | 358 kts | 231° |
| 2026-04-22 03:08 | 32.01385 | -94.21971 | 21907 ft | 367 kts | 231° |
| 2026-04-22 03:08 | 31.99581 | -94.24102 | 21905 ft | 374 kts | 230° |
| 2026-04-22 03:09 | 31.97722 | -94.26296 | 21905 ft | 381 kts | 230° |
| 2026-04-22 03:09 | 31.95826 | -94.28533 | 21903 ft | 387 kts | 230° |
| 2026-04-22 03:09 | 31.93921 | -94.30779 | 21901 ft | 389 kts | 230° |
| 2026-04-22 03:09 | 31.92029 | -94.33008 | 21900 ft | 391 kts | 230° |
| 2026-04-22 03:10 | 31.90101 | -94.35279 | 21899 ft | 391 kts | 230° |
| 2026-04-22 03:10 | 31.88181 | -94.37538 | 21894 ft | 391 kts | 230° |
| 2026-04-22 03:10 | 31.86263 | -94.39795 | 21894 ft | 392 kts | 230° |
| 2026-04-22 03:10 | 31.84331 | -94.42068 | 21894 ft | 392 kts | 230° |
| 2026-04-22 03:11 | 31.82425 | -94.44307 | 21894 ft | 392 kts | 230° |
| 2026-04-22 03:11 | 31.80487 | -94.46582 | 21893 ft | 392 kts | 230° |
| 2026-04-22 03:11 | 31.78579 | -94.48822 | 21894 ft | 392 kts | 230° |
| 2026-04-22 03:11 | 31.76659 | -94.51074 | 21894 ft | 392 kts | 230° |
| 2026-04-22 03:12 | 31.74712 | -94.53355 | 21893 ft | 392 kts | 230° |
| 2026-04-22 03:12 | 31.70868 | -94.57857 | 21893 ft | 392 kts | 230° |
| 2026-04-22 03:12 | 31.68957 | -94.60094 | 21893 ft | 392 kts | 230° |
| 2026-04-22 03:13 | 31.67023 | -94.62354 | 21893 ft | 392 kts | 230° |
| 2026-04-22 03:13 | 31.65084 | -94.64620 | 21893 ft | 392 kts | 230° |
| 2026-04-22 03:13 | 31.63175 | -94.66849 | 21900 ft | 392 kts | 230° |
| 2026-04-22 03:13 | 31.61232 | -94.69117 | 21901 ft | 392 kts | 230° |
| 2026-04-22 03:14 | 31.59306 | -94.71364 | 21901 ft | 393 kts | 230° |
| 2026-04-22 03:14 | 31.57378 | -94.73611 | 21901 ft | 393 kts | 230° |
| 2026-04-22 03:14 | 31.55453 | -94.75854 | 21901 ft | 393 kts | 230° |
| 2026-04-22 03:14 | 31.53493 | -94.78136 | 21901 ft | 393 kts | 230° |
| 2026-04-22 03:15 | 31.51562 | -94.80382 | 21901 ft | 393 kts | 230° |
| 2026-04-22 03:15 | 31.49639 | -94.82617 | 21899 ft | 394 kts | 230° |
| 2026-04-22 03:15 | 31.47690 | -94.84882 | 21897 ft | 394 kts | 230° |
| 2026-04-22 03:15 | 31.45763 | -94.87119 | 21894 ft | 394 kts | 230° |
| 2026-04-22 03:16 | 31.43811 | -94.89385 | 21892 ft | 394 kts | 230° |
| 2026-04-22 03:16 | 31.41864 | -94.91644 | 21890 ft | 394 kts | 230° |
| 2026-04-22 03:16 | 31.39920 | -94.93896 | 21887 ft | 394 kts | 230° |
| 2026-04-22 03:16 | 31.37982 | -94.96141 | 21885 ft | 393 kts | 230° |
| 2026-04-22 03:17 | 31.36043 | -94.98386 | 21883 ft | 393 kts | 230° |
| 2026-04-22 03:17 | 31.34123 | -95.00607 | 21880 ft | 393 kts | 230° |
| 2026-04-22 03:17 | 31.32167 | -95.02869 | 21881 ft | 393 kts | 230° |
| 2026-04-22 03:17 | 31.30248 | -95.05087 | 21881 ft | 393 kts | 230° |
| 2026-04-22 03:18 | 31.28309 | -95.07328 | 21881 ft | 392 kts | 230° |
| 2026-04-22 03:18 | 31.26375 | -95.09560 | 21881 ft | 392 kts | 230° |
| 2026-04-22 03:18 | 31.24424 | -95.11810 | 21881 ft | 392 kts | 230° |
| 2026-04-22 03:18 | 31.22497 | -95.14031 | 21880 ft | 392 kts | 230° |
| 2026-04-22 03:19 | 31.20543 | -95.16283 | 21880 ft | 392 kts | 230° |
| 2026-04-22 03:19 | 31.18630 | -95.18485 | 21880 ft | 392 kts | 230° |
| 2026-04-22 03:19 | 31.16675 | -95.20735 | 21880 ft | 392 kts | 230° |
| 2026-04-22 03:19 | 31.14741 | -95.22958 | 21880 ft | 391 kts | 230° |
| 2026-04-22 03:20 | 31.12808 | -95.25181 | 21880 ft | 391 kts | 230° |
| 2026-04-22 03:20 | 31.10874 | -95.27402 | 21880 ft | 391 kts | 230° |
| 2026-04-22 03:20 | 31.08935 | -95.29628 | 21880 ft | 391 kts | 230° |
| 2026-04-22 03:20 | 31.07020 | -95.31825 | 21886 ft | 391 kts | 230° |
| 2026-04-22 03:21 | 31.05080 | -95.34049 | 21888 ft | 391 kts | 230° |
| 2026-04-22 03:21 | 31.03155 | -95.36256 | 21888 ft | 391 kts | 230° |
| 2026-04-22 03:21 | 31.01224 | -95.38467 | 21887 ft | 391 kts | 230° |
| 2026-04-22 03:21 | 30.99275 | -95.40697 | 21886 ft | 391 kts | 230° |
| 2026-04-22 03:22 | 30.97345 | -95.42904 | 21885 ft | 391 kts | 230° |
| 2026-04-22 03:22 | 30.95404 | -95.45122 | 21884 ft | 391 kts | 231° |
| 2026-04-22 03:22 | 30.93460 | -95.47344 | 21883 ft | 392 kts | 231° |
| 2026-04-22 03:22 | 30.91538 | -95.49538 | 21882 ft | 392 kts | 231° |
| 2026-04-22 03:23 | 30.89577 | -95.51775 | 21879 ft | 392 kts | 231° |
| 2026-04-22 03:23 | 30.87645 | -95.53979 | 21874 ft | 392 kts | 231° |
| 2026-04-22 03:23 | 30.85682 | -95.56215 | 21873 ft | 392 kts | 231° |
| 2026-04-22 03:23 | 30.83758 | -95.58407 | 21874 ft | 392 kts | 231° |
| 2026-04-22 03:24 | 30.81796 | -95.60640 | 21873 ft | 392 kts | 231° |
| 2026-04-22 03:24 | 30.79856 | -95.62848 | 21873 ft | 392 kts | 231° |
| 2026-04-22 03:24 | 30.77909 | -95.65061 | 21873 ft | 392 kts | 230° |
| 2026-04-22 03:24 | 30.75952 | -95.67284 | 21882 ft | 393 kts | 230° |
| 2026-04-22 03:25 | 30.74019 | -95.69480 | 21882 ft | 393 kts | 230° |
| 2026-04-22 03:25 | 30.72050 | -95.71715 | 21882 ft | 394 kts | 230° |
| 2026-04-22 03:25 | 30.70100 | -95.73927 | 21882 ft | 394 kts | 230° |
| 2026-04-22 03:25 | 30.68156 | -95.76130 | 21882 ft | 394 kts | 230° |
| 2026-04-22 03:26 | 30.66205 | -95.78340 | 21882 ft | 394 kts | 230° |
| 2026-04-22 03:26 | 30.64222 | -95.80585 | 21883 ft | 395 kts | 230° |
| 2026-04-22 03:26 | 30.62268 | -95.82797 | 21882 ft | 395 kts | 230° |
| 2026-04-22 03:26 | 30.60320 | -95.84999 | 21882 ft | 395 kts | 230° |
| 2026-04-22 03:27 | 30.58336 | -95.87241 | 21880 ft | 395 kts | 230° |
| 2026-04-22 03:27 | 30.56388 | -95.89442 | 21878 ft | 395 kts | 230° |
| 2026-04-22 03:27 | 30.54426 | -95.91657 | 21876 ft | 396 kts | 230° |
| 2026-04-22 03:27 | 30.52440 | -95.93897 | 21875 ft | 396 kts | 230° |
| 2026-04-22 03:28 | 30.50488 | -95.96097 | 21874 ft | 396 kts | 230° |
| 2026-04-22 03:28 | 30.48500 | -95.98337 | 21873 ft | 396 kts | 230° |
| 2026-04-22 03:28 | 30.46550 | -96.00532 | 21872 ft | 396 kts | 230° |
| 2026-04-22 03:28 | 30.44580 | -96.02751 | 21872 ft | 396 kts | 230° |
| 2026-04-22 03:29 | 30.42588 | -96.04992 | 21872 ft | 396 kts | 230° |
| 2026-04-22 03:29 | 30.40629 | -96.07194 | 21871 ft | 396 kts | 230° |
| 2026-04-22 03:29 | 30.38646 | -96.09422 | 21871 ft | 396 kts | 230° |
| 2026-04-22 03:29 | 30.36673 | -96.11637 | 21871 ft | 396 kts | 230° |
| 2026-04-22 03:30 | 30.34720 | -96.13827 | 21871 ft | 396 kts | 230° |
| 2026-04-22 03:30 | 30.32733 | -96.16056 | 21871 ft | 396 kts | 230° |
| 2026-04-22 03:30 | 30.30751 | -96.18276 | 21871 ft | 396 kts | 230° |
| 2026-04-22 03:30 | 30.28795 | -96.20469 | 21871 ft | 396 kts | 230° |
| 2026-04-22 03:31 | 30.26814 | -96.22686 | 21871 ft | 396 kts | 230° |
| 2026-04-22 03:31 | 30.24844 | -96.24889 | 21871 ft | 396 kts | 230° |
| 2026-04-22 03:31 | 30.22869 | -96.27099 | 21870 ft | 396 kts | 230° |
| 2026-04-22 03:31 | 30.20903 | -96.29296 | 21870 ft | 396 kts | 230° |
| 2026-04-22 03:32 | 30.18909 | -96.31522 | 21869 ft | 396 kts | 230° |
| 2026-04-22 03:32 | 30.16941 | -96.33720 | 21868 ft | 396 kts | 230° |
| 2026-04-22 03:32 | 30.14961 | -96.35928 | 21866 ft | 396 kts | 230° |
| 2026-04-22 03:32 | 30.12978 | -96.38138 | 21864 ft | 396 kts | 230° |
| 2026-04-22 03:33 | 30.11005 | -96.40337 | 21861 ft | 396 kts | 230° |
| 2026-04-22 03:33 | 30.09035 | -96.42531 | 21859 ft | 396 kts | 230° |
| 2026-04-22 03:33 | 30.07041 | -96.44750 | 21855 ft | 396 kts | 230° |
| 2026-04-22 03:33 | 30.05060 | -96.46954 | 21853 ft | 396 kts | 230° |
| 2026-04-22 03:34 | 30.03090 | -96.49143 | 21852 ft | 396 kts | 230° |
| 2026-04-22 03:34 | 30.01102 | -96.51351 | 21854 ft | 396 kts | 230° |
| 2026-04-22 03:34 | 29.99124 | -96.53547 | 21858 ft | 396 kts | 230° |
| 2026-04-22 03:34 | 29.97144 | -96.55745 | 21861 ft | 396 kts | 230° |
| 2026-04-22 03:35 | 29.95159 | -96.57946 | 21864 ft | 396 kts | 230° |
| 2026-04-22 03:35 | 29.93187 | -96.60132 | 21867 ft | 396 kts | 230° |
| 2026-04-22 03:35 | 29.91198 | -96.62335 | 21871 ft | 396 kts | 230° |
| 2026-04-22 03:35 | 29.89213 | -96.64533 | 21868 ft | 396 kts | 230° |
| 2026-04-22 03:36 | 29.87253 | -96.66701 | 21874 ft | 396 kts | 230° |
| 2026-04-22 03:36 | 29.85267 | -96.68897 | 21873 ft | 396 kts | 230° |
| 2026-04-22 03:36 | 29.83263 | -96.71111 | 21871 ft | 396 kts | 230° |
| 2026-04-22 03:36 | 29.81281 | -96.73302 | 21869 ft | 396 kts | 230° |
| 2026-04-22 03:37 | 29.79308 | -96.75480 | 21867 ft | 397 kts | 230° |
| 2026-04-22 03:37 | 29.77308 | -96.77685 | 21865 ft | 397 kts | 230° |
| 2026-04-22 03:37 | 29.75331 | -96.79864 | 21865 ft | 397 kts | 230° |
| 2026-04-22 03:37 | 29.73350 | -96.82048 | 21867 ft | 397 kts | 230° |
| 2026-04-22 03:38 | 29.71339 | -96.84263 | 21870 ft | 397 kts | 230° |
| 2026-04-22 03:38 | 29.69356 | -96.86446 | 21873 ft | 397 kts | 230° |
| 2026-04-22 03:38 | 29.67373 | -96.88627 | 21877 ft | 397 kts | 230° |
| 2026-04-22 03:38 | 29.65391 | -96.90806 | 21880 ft | 397 kts | 230° |
| 2026-04-22 03:39 | 29.63389 | -96.93005 | 21883 ft | 397 kts | 230° |
| 2026-04-22 03:39 | 29.61393 | -96.95197 | 21886 ft | 397 kts | 230° |
| 2026-04-22 03:39 | 29.59413 | -96.97372 | 21891 ft | 397 kts | 230° |
| 2026-04-22 03:39 | 29.57432 | -96.99548 | 21885 ft | 396 kts | 229° |
| 2026-04-22 03:40 | 29.55445 | -97.01726 | 21877 ft | 396 kts | 229° |
| 2026-04-22 03:40 | 29.53449 | -97.03915 | 21869 ft | 395 kts | 229° |
| 2026-04-22 03:40 | 29.51482 | -97.06068 | 21861 ft | 394 kts | 228° |
| 2026-04-22 03:40 | 29.49496 | -97.08242 | 21853 ft | 393 kts | 228° |
| 2026-04-22 03:41 | 29.47530 | -97.10394 | 21807 ft | 392 kts | 227° |
| 2026-04-22 03:41 | 29.45551 | -97.12558 | 21719 ft | 388 kts | 227° |
| 2026-04-22 03:41 | 29.43631 | -97.14656 | 21500 ft | 385 kts | 227° |
| 2026-04-22 03:41 | 29.41696 | -97.16770 | 21201 ft | 383 kts | 226° |
| 2026-04-22 03:42 | 29.39760 | -97.18884 | 20914 ft | 381 kts | 226° |
| 2026-04-22 03:42 | 29.37855 | -97.20961 | 20621 ft | 379 kts | 225° |
| 2026-04-22 03:42 | 29.35941 | -97.23043 | 20298 ft | 378 kts | 225° |
| 2026-04-22 03:42 | 29.34058 | -97.25092 | 19996 ft | 377 kts | 225° |
| 2026-04-22 03:43 | 29.32156 | -97.27164 | 19693 ft | 376 kts | 225° |
| 2026-04-22 03:43 | 29.30273 | -97.29212 | 19398 ft | 376 kts | 225° |
| 2026-04-22 03:43 | 29.28362 | -97.31290 | 19104 ft | 375 kts | 225° |
| 2026-04-22 03:43 | 29.26499 | -97.33317 | 18831 ft | 374 kts | 224° |
| 2026-04-22 03:44 | 29.24604 | -97.35375 | 18557 ft | 374 kts | 224° |
| 2026-04-22 03:44 | 29.22733 | -97.37408 | 18300 ft | 373 kts | 224° |
| 2026-04-22 03:44 | 29.20861 | -97.39439 | 18047 ft | 372 kts | 224° |
| 2026-04-22 03:44 | 29.18971 | -97.41489 | 17805 ft | 371 kts | 224° |
| 2026-04-22 03:45 | 29.17113 | -97.43504 | 17569 ft | 371 kts | 224° |
| 2026-04-22 03:45 | 29.15243 | -97.45530 | 17337 ft | 370 kts | 224° |
| 2026-04-22 03:45 | 29.13378 | -97.47550 | 17110 ft | 370 kts | 224° |
| 2026-04-22 03:45 | 29.11512 | -97.49570 | 16887 ft | 369 kts | 224° |
| 2026-04-22 03:46 | 29.09661 | -97.51569 | 16573 ft | 370 kts | 224° |
| 2026-04-22 03:46 | 29.07775 | -97.53607 | 16173 ft | 371 kts | 224° |
| 2026-04-22 03:46 | 29.05915 | -97.55618 | 15785 ft | 372 kts | 225° |
| 2026-04-22 03:46 | 29.04054 | -97.57630 | 15382 ft | 373 kts | 225° |
| 2026-04-22 03:47 | 29.02158 | -97.59678 | 14954 ft | 374 kts | 225° |
| 2026-04-22 03:47 | 29.00287 | -97.61698 | 14566 ft | 374 kts | 225° |
| 2026-04-22 03:47 | 28.98393 | -97.63743 | 14205 ft | 374 kts | 225° |
| 2026-04-22 03:47 | 28.96515 | -97.65768 | 13862 ft | 374 kts | 224° |
| 2026-04-22 03:48 | 28.94634 | -97.67796 | 13542 ft | 373 kts | 224° |
| 2026-04-22 03:48 | 28.92734 | -97.69842 | 13203 ft | 373 kts | 224° |
| 2026-04-22 03:48 | 28.90865 | -97.71853 | 12861 ft | 373 kts | 224° |
| 2026-04-22 03:48 | 28.88993 | -97.73867 | 12543 ft | 372 kts | 224° |
| 2026-04-22 03:49 | 28.87125 | -97.75876 | 12277 ft | 370 kts | 224° |
| 2026-04-22 03:49 | 28.85257 | -97.77884 | 12049 ft | 368 kts | 224° |
| 2026-04-22 03:49 | 28.83383 | -97.79896 | 11834 ft | 365 kts | 224° |
| 2026-04-22 03:49 | 28.81547 | -97.81866 | 11573 ft | 364 kts | 224° |
| 2026-04-22 03:50 | 28.79697 | -97.83850 | 11274 ft | 365 kts | 224° |
| 2026-04-22 03:50 | 28.77859 | -97.85822 | 10983 ft | 365 kts | 223° |
| 2026-04-22 03:50 | 28.76028 | -97.87784 | 10744 ft | 363 kts | 224° |
| 2026-04-22 03:50 | 28.74203 | -97.89741 | 10568 ft | 360 kts | 224° |
| 2026-04-22 03:51 | 28.72404 | -97.91668 | 10340 ft | 357 kts | 223° |
| 2026-04-22 03:51 | 28.70583 | -97.93617 | 9897 ft | 361 kts | 223° |
| 2026-04-22 03:51 | 28.68777 | -97.95548 | 9808 ft | 353 kts | 223° |
| 2026-04-22 03:51 | 28.67003 | -97.97444 | 9796 ft | 345 kts | 223° |
| 2026-04-22 03:52 | 28.65272 | -97.99294 | 9795 ft | 339 kts | 223° |
| 2026-04-22 03:52 | 28.63572 | -98.01110 | 9795 ft | 333 kts | 223° |
| 2026-04-22 03:52 | 28.61906 | -98.02889 | 9934 ft | 324 kts | 223° |
| 2026-04-22 03:52 | 28.60280 | -98.04623 | 9964 ft | 320 kts | 223° |
| 2026-04-22 03:53 | 28.58661 | -98.06352 | 9969 ft | 317 kts | 223° |
| 2026-04-22 03:53 | 28.57075 | -98.08043 | 9970 ft | 315 kts | 223° |
| 2026-04-22 03:53 | 28.55466 | -98.09758 | 9971 ft | 314 kts | 223° |
| 2026-04-22 03:53 | 28.53882 | -98.11446 | 9971 ft | 312 kts | 224° |
| 2026-04-22 03:54 | 28.52640 | -98.13406 | 9960 ft | 310 kts | 249° |
| 2026-04-22 03:54 | 28.52408 | -98.15801 | 9973 ft | 308 kts | 278° |
| 2026-04-22 03:54 | 28.53244 | -98.18000 | 9975 ft | 307 kts | 308° |
| 2026-04-22 03:54 | 28.54906 | -98.19546 | 9994 ft | 307 kts | 326° |
| 2026-04-22 03:55 | 28.56681 | -98.20863 | 9979 ft | 308 kts | 327° |
| 2026-04-22 03:55 | 28.58476 | -98.22158 | 9978 ft | 308 kts | 327° |
| 2026-04-22 03:55 | 28.60297 | -98.23458 | 9980 ft | 308 kts | 327° |
| 2026-04-22 03:55 | 28.62095 | -98.24737 | 9981 ft | 308 kts | 327° |
| 2026-04-22 03:56 | 28.63931 | -98.26041 | 9983 ft | 308 kts | 327° |
| 2026-04-22 03:56 | 28.65735 | -98.27325 | 9988 ft | 308 kts | 328° |
| 2026-04-22 03:56 | 28.67559 | -98.28619 | 9990 ft | 312 kts | 328° |
| 2026-04-22 03:56 | 28.69397 | -98.29921 | 9993 ft | 315 kts | 328° |
| 2026-04-22 03:57 | 28.71263 | -98.31246 | 9995 ft | 318 kts | 328° |
| 2026-04-22 03:57 | 28.73163 | -98.32596 | 9996 ft | 320 kts | 328° |
| 2026-04-22 03:57 | 28.75044 | -98.33933 | 9998 ft | 322 kts | 328° |
| 2026-04-22 03:57 | 28.76948 | -98.35287 | 9999 ft | 324 kts | 328° |
| 2026-04-22 03:58 | 28.78869 | -98.36654 | 9999 ft | 325 kts | 328° |
| 2026-04-22 03:58 | 28.80774 | -98.38010 | 10000 ft | 326 kts | 328° |
| 2026-04-22 03:58 | 28.82693 | -98.39377 | 10000 ft | 327 kts | 328° |
| 2026-04-22 03:58 | 28.84617 | -98.40747 | 10000 ft | 328 kts | 328° |
| 2026-04-22 03:59 | 28.86556 | -98.42130 | 9999 ft | 329 kts | 328° |
| 2026-04-22 03:59 | 28.88511 | -98.43523 | 9999 ft | 329 kts | 328° |
| 2026-04-22 03:59 | 28.90435 | -98.44896 | 9999 ft | 330 kts | 328° |
| 2026-04-22 03:59 | 28.92378 | -98.46282 | 9999 ft | 330 kts | 328° |
| 2026-04-22 04:00 | 28.94320 | -98.47669 | 9999 ft | 330 kts | 328° |
| 2026-04-22 04:00 | 28.96274 | -98.49060 | 9998 ft | 331 kts | 329° |
| 2026-04-22 04:00 | 28.98440 | -98.49854 | 9992 ft | 331 kts | 355° |
| 2026-04-22 04:00 | 29.00739 | -98.49847 | 10006 ft | 332 kts | 0° |
| 2026-04-22 04:01 | 29.03049 | -98.49759 | 9999 ft | 333 kts | 2° |
| 2026-04-22 04:01 | 29.05374 | -98.49639 | 10000 ft | 335 kts | 2° |
| 2026-04-22 04:01 | 29.07708 | -98.49509 | 9923 ft | 339 kts | 2° |
| 2026-04-22 04:01 | 29.10089 | -98.49373 | 9522 ft | 352 kts | 3° |
| 2026-04-22 04:02 | 29.12547 | -98.49230 | 9062 ft | 362 kts | 3° |
| 2026-04-22 04:02 | 29.15049 | -98.49081 | 8685 ft | 357 kts | 3° |
| 2026-04-22 04:02 | 29.17508 | -98.48937 | 8196 ft | 351 kts | 4° |
| 2026-04-22 04:02 | 29.19906 | -98.48795 | 7718 ft | 346 kts | 4° |
| 2026-04-22 04:03 | 29.22279 | -98.48653 | 7234 ft | 336 kts | 4° |
| 2026-04-22 04:03 | 29.24592 | -98.48516 | 6750 ft | 328 kts | 4° |
| 2026-04-22 04:03 | 29.26825 | -98.48383 | 6292 ft | 325 kts | 4° |
| 2026-04-22 04:03 | 29.29100 | -98.48247 | 6005 ft | 323 kts | 4° |
| 2026-04-22 04:04 | 29.31296 | -98.48116 | 5971 ft | 307 kts | 4° |
| 2026-04-22 04:04 | 29.33284 | -98.47998 | 5952 ft | 274 kts | 4° |
| 2026-04-22 04:04 | 29.35099 | -98.47936 | 5950 ft | 250 kts | 354° |
| 2026-04-22 04:04 | 29.36573 | -98.48734 | 5972 ft | 229 kts | 313° |
| 2026-04-22 04:05 | 29.37190 | -98.50308 | 5981 ft | 210 kts | 270° |
| 2026-04-22 04:05 | 29.37058 | -98.51914 | 5977 ft | 198 kts | 262° |
| 2026-04-22 04:05 | 29.36895 | -98.53426 | 5964 ft | 188 kts | 261° |
| 2026-04-22 04:05 | 29.36722 | -98.54892 | 5955 ft | 180 kts | 261° |
| 2026-04-22 04:06 | 29.36547 | -98.56300 | 5727 ft | 186 kts | 260° |
| 2026-04-22 04:06 | 29.36347 | -98.57839 | 5242 ft | 201 kts | 261° |
| 2026-04-22 04:06 | 29.36137 | -98.59445 | 4763 ft | 209 kts | 261° |
| 2026-04-22 04:06 | 29.35921 | -98.61100 | 4279 ft | 214 kts | 263° |
| 2026-04-22 04:07 | 29.36233 | -98.62730 | 3788 ft | 216 kts | 306° |
| 2026-04-22 04:07 | 29.37410 | -98.63647 | 3502 ft | 200 kts | 353° |
| 2026-04-22 04:07 | 29.38665 | -98.63357 | 3466 ft | 174 kts | 39° |
| 2026-04-22 04:07 | 29.39290 | -98.62306 | 3359 ft | 162 kts | 73° |
| 2026-04-22 04:08 | 29.39672 | -98.61087 | 3095 ft | 160 kts | 66° |
| 2026-04-22 04:08 | 29.40213 | -98.59985 | 2757 ft | 162 kts | 57° |
| 2026-04-22 04:08 | 29.40877 | -98.58955 | 2601 ft | 151 kts | 52° |
| 2026-04-22 04:08 | 29.41528 | -98.58095 | 2539 ft | 141 kts | 49° |
| 2026-04-22 04:09 | 29.42250 | -98.57302 | 2363 ft | 144 kts | 44° |
| 2026-04-22 04:09 | 29.42954 | -98.56486 | 2203 ft | 146 kts | 46° |
| 2026-04-22 04:09 | 29.43695 | -98.55669 | 2040 ft | 149 kts | 44° |
| 2026-04-22 04:09 | 29.44445 | -98.54871 | 1976 ft | 144 kts | 44° |
| 2026-04-22 04:10 | 29.45171 | -98.54120 | 1964 ft | 136 kts | 43° |
| 2026-04-22 04:10 | 29.45857 | -98.53421 | 1965 ft | 128 kts | 43° |
| 2026-04-22 04:10 | 29.46504 | -98.52769 | 1944 ft | 122 kts | 43° |
| 2026-04-22 04:10 | 29.47150 | -98.52119 | 1912 ft | 124 kts | 42° |
| 2026-04-22 04:11 | 29.47796 | -98.51475 | 1930 ft | 124 kts | 42° |
| 2026-04-22 04:11 | 29.48451 | -98.50825 | 1945 ft | 125 kts | 42° |
| 2026-04-22 04:11 | 29.49118 | -98.50163 | 1959 ft | 126 kts | 42° |
| 2026-04-22 04:11 | 29.49787 | -98.49503 | 1961 ft | 128 kts | 41° |
| 2026-04-22 04:12 | 29.50509 | -98.48833 | 1828 ft | 139 kts | 40° |
| 2026-04-22 04:12 | 29.51234 | -98.48117 | 1856 ft | 133 kts | 44° |
| 2026-04-22 04:12 | 29.51919 | -98.47376 | 1742 ft | 139 kts | 45° |
| 2026-04-22 04:12 | 29.52645 | -98.46657 | 1730 ft | 136 kts | 38° |
| 2026-04-22 04:13 | 29.53422 | -98.46024 | 1692 ft | 137 kts | 36° |
| 2026-04-22 04:13 | 29.54183 | -98.45368 | 1632 ft | 138 kts | 44° |
| 2026-04-22 04:13 | 29.54800 | -98.44546 | 1613 ft | 135 kts | 55° |
| 2026-04-22 04:13 | 29.55337 | -98.43671 | 1592 ft | 134 kts | 57° |
| 2026-04-22 04:14 | 29.55868 | -98.42773 | 1546 ft | 135 kts | 54° |
| 2026-04-22 04:14 | 29.56470 | -98.41934 | 1480 ft | 137 kts | 49° |
| 2026-04-22 04:14 | 29.57103 | -98.41117 | 1439 ft | 138 kts | 52° |
| 2026-04-22 04:14 | 29.57591 | -98.40162 | 1414 ft | 138 kts | 66° |
| 2026-04-22 04:15 | 29.57983 | -98.39162 | 1349 ft | 145 kts | 66° |
| 2026-04-22 04:15 | 29.58402 | -98.38062 | 1252 ft | 149 kts | 68° |
| 2026-04-22 04:15 | 29.58764 | -98.36996 | 1374 ft | 140 kts | 71° |
| 2026-04-22 04:15 | 29.59000 | -98.35877 | 1276 ft | 147 kts | 86° |
| 2026-04-22 04:16 | 29.58866 | -98.34685 | 1146 ft | 156 kts | 99° |
| 2026-04-22 04:16 | 29.58486 | -98.32267 | 1161 ft | 151 kts | 107° |
| 2026-04-22 04:16 | 29.58024 | -98.31146 | 1053 ft | 156 kts | 123° |
| 2026-04-22 04:17 | 29.57313 | -98.30225 | 1113 ft | 152 kts | 137° |
| 2026-04-22 04:17 | 29.56454 | -98.29464 | 973 ft | 161 kts | 143° |
| 2026-04-22 04:17 | 29.55597 | -98.28688 | 1007 ft | 156 kts | 133° |
| 2026-04-22 04:17 | 29.55105 | -98.27605 | 1110 ft | 152 kts | 103° |
| 2026-04-22 04:18 | 29.54754 | -98.26430 | 1093 ft | 160 kts | 115° |
| 2026-04-22 04:18 | 29.54216 | -98.25326 | 1233 ft | 156 kts | 120° |
| 2026-04-22 04:18 | 29.53692 | -98.24178 | 1144 ft | 167 kts | 112° |
| 2026-04-22 04:18 | 29.53321 | -98.22919 | 1129 ft | 174 kts | 103° |
| 2026-04-22 04:19 | 29.53126 | -98.21497 | 1046 ft | 181 kts | 95° |
| 2026-04-22 04:19 | 29.53092 | -98.20007 | 970 ft | 184 kts | 88° |
| 2026-04-22 04:19 | 29.53245 | -98.18868 | 1886 ft | 128 kts | 69° |
| 2026-04-22 04:19 | 29.53920 | -98.17738 | 1793 ft | 206 kts | 55° |
| 2026-04-22 04:20 | 29.54483 | -98.16724 | 4043 ft | 136 kts | 66° |
| 2026-04-22 04:20 | 29.54805 | -98.15795 | 4768 ft | 158 kts | 74° |
| 2026-04-22 04:20 | 29.55207 | -98.14420 | 5263 ft | 196 kts | 72° |
| 2026-04-22 04:20 | 29.55251 | -98.13142 | 6538 ft | 177 kts | 140° |
| 2026-04-22 04:21 | 29.54016 | -98.13441 | 6952 ft | 198 kts | 207° |
| 2026-04-22 04:21 | 29.53614 | -98.13732 | 8468 ft | 136 kts | 217° |
| 2026-04-22 04:21 | 29.53019 | -98.14392 | 8936 ft | 164 kts | 235° |
| 2026-04-22 04:21 | 29.52499 | -98.15797 | 9116 ft | 209 kts | 263° |
| 2026-04-22 04:22 | 29.52888 | -98.17338 | 10159 ft | 206 kts | 299° |
| 2026-04-22 04:22 | 29.53666 | -98.18772 | 11048 ft | 213 kts | 303° |
| 2026-04-22 04:22 | 29.54285 | -98.20307 | 11767 ft | 227 kts | 287° |
| 2026-04-22 04:22 | 29.54886 | -98.22061 | 12166 ft | 252 kts | 313° |
| 2026-04-22 04:23 | 29.56337 | -98.23391 | 11687 ft | 296 kts | 326° |
| 2026-04-22 04:23 | 29.58198 | -98.24545 | 11043 ft | 302 kts | 336° |
| 2026-04-22 04:23 | 29.60045 | -98.25571 | 10584 ft | 289 kts | 330° |
| 2026-04-22 04:23 | 29.61440 | -98.26640 | 11827 ft | 197 kts | 323° |
| 2026-04-22 04:24 | 29.62218 | -98.27499 | 12534 ft | 136 kts | 302° |
| 2026-04-22 04:24 | 29.62517 | -98.28515 | 12243 ft | 139 kts | 275° |
| 2026-04-22 04:24 | 29.62481 | -98.29573 | 12016 ft | 130 kts | 266° |
| 2026-04-22 04:24 | 29.62401 | -98.30643 | 11564 ft | 137 kts | 257° |
| 2026-04-22 04:25 | 29.62001 | -98.31583 | 11205 ft | 133 kts | 226° |
| 2026-04-22 04:25 | 29.61247 | -98.32192 | 10780 ft | 133 kts | 204° |
| 2026-04-22 04:25 | 29.60414 | -98.32549 | 10408 ft | 124 kts | 204° |
| 2026-04-22 04:25 | 29.59639 | -98.33014 | 9816 ft | 132 kts | 207° |
| 2026-04-22 04:26 | 29.58859 | -98.33485 | 9326 ft | 128 kts | 230° |
| 2026-04-22 04:26 | 29.58741 | -98.34470 | 8751 ft | 124 kts | 282° |
| 2026-04-22 04:26 | 29.58987 | -98.35327 | 8327 ft | 122 kts | 310° |
| 2026-04-22 04:26 | 29.59679 | -98.35801 | 7722 ft | 125 kts | 2° |
| 2026-04-22 04:27 | 29.60396 | -98.35389 | 7246 ft | 120 kts | 61° |
| 2026-04-22 04:27 | 29.60213 | -98.34567 | 6432 ft | 132 kts | 165° |
| 2026-04-22 04:27 | 29.59403 | -98.34637 | 5996 ft | 109 kts | 207° |
| 2026-04-22 04:27 | 29.59085 | -98.35410 | 5234 ft | 125 kts | 286° |
| 2026-04-22 04:28 | 29.59362 | -98.36239 | 4900 ft | 114 kts | 324° |
| 2026-04-22 04:28 | 29.60140 | -98.36404 | 4221 ft | 113 kts | 2° |
| 2026-04-22 04:28 | 29.60627 | -98.35869 | 3492 ft | 130 kts | 94° |
| 2026-04-22 04:28 | 29.60088 | -98.35468 | 2553 ft | 140 kts | 239° |
| 2026-04-22 04:29 | 29.59917 | -98.36382 | 2220 ft | 95 kts | 271° |
| 2026-04-22 04:29 | 29.60339 | -98.36983 | 1435 ft | 125 kts | 353° |
| 2026-04-22 04:29 | 29.61123 | -98.36803 | 2040 ft | 104 kts | 34° |
| 2026-04-22 04:29 | 29.61592 | -98.36131 | 2312 ft | 119 kts | 69° |
| 2026-04-22 04:30 | 29.61524 | -98.35239 | 2601 ft | 128 kts | 123° |
| 2026-04-22 04:30 | 29.60752 | -98.34769 | 2770 ft | 120 kts | 168° |
| 2026-04-22 04:30 | 29.60055 | -98.34347 | 2902 ft | 120 kts | 137° |
| 2026-04-22 04:30 | 29.59416 | -98.33740 | 3118 ft | 114 kts | 142° |
| 2026-04-22 04:31 | 29.58780 | -98.33179 | 3245 ft | 120 kts | 142° |
| 2026-04-22 04:31 | 29.58127 | -98.32597 | 3403 ft | 122 kts | 142° |
| 2026-04-22 04:31 | 29.57405 | -98.32022 | 3448 ft | 122 kts | 147° |
| 2026-04-22 04:31 | 29.56694 | -98.31496 | 3278 ft | 128 kts | 148° |
| 2026-04-22 04:32 | 29.55960 | -98.31001 | 3167 ft | 113 kts | 152° |
| 2026-04-22 04:32 | 29.55255 | -98.30548 | 2704 ft | 121 kts | 148° |
| 2026-04-22 04:32 | 29.54536 | -98.30051 | 2244 ft | 123 kts | 150° |
| 2026-04-22 04:32 | 29.53793 | -98.29584 | 1797 ft | 121 kts | 156° |
| 2026-04-22 04:33 | 29.53081 | -98.29076 | 1321 ft | 123 kts | 152° |
| 2026-04-22 04:33 | 29.52364 | -98.28580 | 910 ft | 119 kts | 152° |
| 2026-04-22 04:33 | 29.51703 | -98.28149 | 731 ft | 91 kts | 150° |
| 2026-04-22 04:33 | 29.51496 | -98.28019 | 729 ft | 0 kts | 153° |
| 2026-04-22 04:34 | 29.51482 | -98.28011 | 729 ft | 2 kts | 130° |
| 2026-04-22 04:34 | 29.51542 | -98.27994 | 728 ft | 17 kts | 61° |
| 2026-04-22 04:34 | 29.51607 | -98.27887 | 724 ft | 20 kts | 11° |
| 2026-04-22 04:34 | 29.51790 | -98.27984 | 725 ft | 38 kts | 328° |
| 2026-04-22 04:35 | 29.52069 | -98.28162 | 730 ft | 54 kts | 328° |
| 2026-04-22 04:35 | 29.52358 | -98.28359 | 736 ft | 25 kts | 337° |
| 2026-04-22 04:35 | 29.52400 | -98.28378 | 737 ft | 16 kts | 344° |
| 2026-04-22 04:35 | 29.52574 | -98.28383 | 739 ft | 20 kts | 283° |
| 2026-04-22 04:36 | 29.52568 | -98.28412 | 740 ft | 0 kts | 236° |